createdAt,value
2023-03-10T00:00:39.878Z,942.73
2023-03-10T00:01:39.849Z,942.73
2023-03-10T00:02:39.817Z,942.68
2023-03-10T00:03:39.788Z,942.68
2023-03-10T00:04:39.828Z,942.66
2023-03-10T00:05:39.812Z,942.62
2023-03-10T00:06:39.706Z,942.60
2023-03-10T00:07:39.676Z,942.66
2023-03-10T00:08:39.647Z,942.69
2023-03-10T00:09:39.619Z,942.69
2023-03-10T00:10:39.620Z,942.69
2023-03-10T00:11:39.560Z,942.70
2023-03-10T00:12:39.532Z,942.70
2023-03-10T00:13:39.511Z,942.63
2023-03-10T00:14:39.471Z,942.68
2023-03-10T00:15:39.486Z,942.73
2023-03-10T00:16:39.415Z,942.75
2023-03-10T00:17:39.387Z,942.75
2023-03-10T00:18:39.357Z,942.79
2023-03-10T00:19:39.331Z,942.77
2023-03-10T00:20:39.299Z,942.74
2023-03-10T00:21:39.283Z,942.71
2023-03-10T00:22:39.281Z,942.73
2023-03-10T00:23:39.215Z,942.75
2023-03-10T00:24:39.186Z,942.72
2023-03-10T00:25:39.158Z,942.72
2023-03-10T00:26:39.259Z,942.70
2023-03-10T00:27:39.110Z,942.68
2023-03-10T00:28:39.074Z,942.63
2023-03-10T00:29:39.047Z,942.64
2023-03-10T00:30:39.017Z,942.65
2023-03-10T00:31:39.131Z,942.63
2023-03-10T00:32:39.032Z,942.66
2023-03-10T00:33:38.941Z,942.56
2023-03-10T00:34:38.908Z,942.57
2023-03-10T00:35:38.907Z,942.56
2023-03-10T00:36:38.851Z,942.55
2023-03-10T00:37:38.822Z,942.58
2023-03-10T00:38:38.794Z,942.54
2023-03-10T00:39:38.765Z,942.58
2023-03-10T00:40:38.735Z,942.57
2023-03-10T00:41:38.713Z,942.52
2023-03-10T00:42:38.699Z,942.56
2023-03-10T00:43:38.652Z,942.58
2023-03-10T00:44:38.625Z,942.57
2023-03-10T00:45:38.596Z,942.58
2023-03-10T00:46:38.730Z,942.52
2023-03-10T00:47:38.536Z,942.52
2023-03-10T00:48:38.515Z,942.47
2023-03-10T00:49:38.481Z,942.50
2023-03-10T00:50:38.450Z,942.51
2023-03-10T00:51:38.425Z,942.53
2023-03-10T00:52:38.393Z,942.59
2023-03-10T00:53:38.368Z,942.56
2023-03-10T00:54:38.337Z,942.52
2023-03-10T00:55:38.309Z,942.53
2023-03-10T00:56:38.279Z,942.55
2023-03-10T00:57:38.271Z,942.58
2023-03-10T00:58:38.240Z,942.62
2023-03-10T00:59:50.018Z,942.59
2023-03-10T01:00:38.163Z,942.56
2023-03-10T01:01:38.299Z,942.63
2023-03-10T01:02:38.112Z,942.52
2023-03-10T01:03:38.079Z,942.56
2023-03-10T01:04:38.084Z,942.46
2023-03-10T01:05:38.023Z,942.39
2023-03-10T01:06:38.012Z,942.51
2023-03-10T01:07:37.967Z,942.49
2023-03-10T01:08:37.945Z,942.49
2023-03-10T01:09:37.907Z,942.49
2023-03-10T01:10:37.878Z,942.45
2023-03-10T01:11:37.854Z,942.55
2023-03-10T01:12:37.823Z,942.44
2023-03-10T01:13:39.950Z,942.44
2023-03-10T01:14:37.798Z,942.42
2023-03-10T01:15:37.734Z,942.49
2023-03-10T01:16:37.718Z,942.44
2023-03-10T01:17:37.679Z,942.40
2023-03-10T01:18:37.648Z,942.41
2023-03-10T01:19:37.620Z,942.34
2023-03-10T01:20:37.592Z,942.34
2023-03-10T01:21:37.582Z,942.39
2023-03-10T01:22:37.531Z,942.32
2023-03-10T01:23:37.506Z,942.32
2023-03-10T01:24:37.479Z,942.24
2023-03-10T01:25:37.447Z,942.30
2023-03-10T01:26:37.419Z,942.25
2023-03-10T01:27:37.392Z,942.32
2023-03-10T01:28:37.363Z,942.32
2023-03-10T01:29:37.331Z,942.29
2023-03-10T01:30:37.320Z,942.37
2023-03-10T01:31:37.316Z,942.38
2023-03-10T01:32:37.323Z,942.38
2023-03-10T01:33:37.217Z,942.37
2023-03-10T01:34:37.184Z,942.38
2023-03-10T01:35:37.236Z,942.36
2023-03-10T01:36:37.132Z,942.39
2023-03-10T01:37:37.102Z,942.44
2023-03-10T01:38:37.077Z,942.41
2023-03-10T01:39:37.048Z,942.37
2023-03-10T01:40:37.013Z,942.37
2023-03-10T01:41:36.989Z,942.32
2023-03-10T01:42:36.958Z,942.29
2023-03-10T01:43:36.928Z,942.40
2023-03-10T01:44:36.901Z,942.33
2023-03-10T01:45:36.869Z,942.36
2023-03-10T01:46:36.901Z,942.34
2023-03-10T01:47:36.812Z,942.35
2023-03-10T01:48:36.783Z,942.31
2023-03-10T01:49:36.756Z,942.31
2023-03-10T01:50:36.724Z,942.34
2023-03-10T01:51:36.699Z,942.41
2023-03-10T01:52:36.665Z,942.35
2023-03-10T01:53:36.638Z,942.49
2023-03-10T01:54:36.609Z,942.31
2023-03-10T01:55:36.584Z,942.35
2023-03-10T01:56:36.552Z,942.41
2023-03-10T01:57:36.537Z,942.42
2023-03-10T01:58:36.497Z,942.36
2023-03-10T01:59:36.473Z,942.33
2023-03-10T02:00:36.474Z,942.46
2023-03-10T02:01:36.456Z,942.28
2023-03-10T02:02:36.500Z,942.41
2023-03-10T02:03:36.353Z,942.37
2023-03-10T02:04:36.334Z,942.48
2023-03-10T02:05:36.294Z,942.48
2023-03-10T02:06:36.264Z,942.35
2023-03-10T02:07:36.234Z,942.52
2023-03-10T02:08:36.209Z,942.51
2023-03-10T02:09:36.180Z,942.40
2023-03-10T02:10:36.151Z,942.49
2023-03-10T02:11:36.123Z,942.76
2023-03-10T02:12:36.096Z,942.53
2023-03-10T02:13:36.073Z,942.77
2023-03-10T02:14:36.050Z,942.46
2023-03-10T02:15:36.009Z,942.55
2023-03-10T02:16:36.029Z,942.53
2023-03-10T02:17:35.965Z,942.43
2023-03-10T02:18:35.943Z,942.36
2023-03-10T02:19:35.894Z,942.41
2023-03-10T02:20:35.863Z,942.38
2023-03-10T02:21:35.837Z,942.46
2023-03-10T02:22:35.807Z,942.42
2023-03-10T02:23:35.780Z,942.47
2023-03-10T02:24:35.748Z,942.44
2023-03-10T02:25:35.722Z,942.45
2023-03-10T02:26:35.688Z,942.51
2023-03-10T02:27:35.662Z,942.47
2023-03-10T02:28:35.630Z,942.42
2023-03-10T02:29:40.284Z,942.37
2023-03-10T02:30:35.576Z,942.40
2023-03-10T02:31:35.602Z,942.39
2023-03-10T02:32:35.570Z,942.37
2023-03-10T02:33:35.486Z,942.32
2023-03-10T02:34:35.479Z,942.33
2023-03-10T02:35:35.454Z,942.29
2023-03-10T02:36:35.396Z,942.24
2023-03-10T02:37:35.379Z,942.33
2023-03-10T02:38:35.340Z,942.39
2023-03-10T02:39:35.314Z,942.44
2023-03-10T02:40:35.289Z,942.39
2023-03-10T02:41:35.292Z,942.41
2023-03-10T02:42:35.220Z,942.37
2023-03-10T02:43:35.215Z,942.47
2023-03-10T02:44:35.160Z,942.39
2023-03-10T02:45:35.230Z,942.42
2023-03-10T02:46:35.100Z,942.46
2023-03-10T02:47:35.072Z,942.37
2023-03-10T02:48:35.038Z,942.43
2023-03-10T02:49:35.012Z,942.36
2023-03-10T02:50:34.999Z,942.41
2023-03-10T02:51:34.954Z,942.36
2023-03-10T02:52:34.927Z,942.46
2023-03-10T02:53:34.894Z,942.40
2023-03-10T02:54:34.862Z,942.48
2023-03-10T02:55:34.834Z,942.38
2023-03-10T02:56:34.806Z,942.48
2023-03-10T02:57:34.781Z,942.41
2023-03-10T02:58:34.744Z,942.30
2023-03-10T02:59:34.715Z,942.32
2023-03-10T03:00:34.683Z,942.19
2023-03-10T03:01:34.747Z,942.13
2023-03-10T03:02:34.624Z,942.16
2023-03-10T03:03:34.621Z,942.29
2023-03-10T03:04:34.565Z,942.18
2023-03-10T03:05:34.569Z,942.22
2023-03-10T03:06:34.524Z,942.20
2023-03-10T03:07:34.477Z,942.21
2023-03-10T03:08:34.454Z,942.27
2023-03-10T03:09:34.421Z,942.27
2023-03-10T03:10:34.386Z,942.23
2023-03-10T03:11:34.359Z,942.25
2023-03-10T03:12:34.340Z,942.27
2023-03-10T03:13:34.299Z,942.29
2023-03-10T03:14:34.268Z,942.27
2023-03-10T03:15:34.239Z,942.24
2023-03-10T03:16:34.300Z,942.23
2023-03-10T03:17:34.182Z,942.30
2023-03-10T03:18:34.150Z,942.33
2023-03-10T03:19:34.122Z,942.30
2023-03-10T03:20:34.089Z,942.35
2023-03-10T03:21:34.061Z,942.36
2023-03-10T03:22:34.053Z,942.36
2023-03-10T03:23:34.003Z,942.41
2023-03-10T03:24:33.979Z,942.34
2023-03-10T03:25:33.943Z,942.39
2023-03-10T03:26:33.911Z,942.31
2023-03-10T03:27:33.883Z,942.27
2023-03-10T03:28:33.853Z,942.28
2023-03-10T03:29:33.821Z,942.29
2023-03-10T03:30:33.793Z,942.21
2023-03-10T03:31:33.790Z,942.22
2023-03-10T03:32:33.802Z,942.18
2023-03-10T03:33:38.008Z,942.14
2023-03-10T03:34:33.676Z,942.14
2023-03-10T03:35:33.707Z,942.15
2023-03-10T03:36:33.613Z,942.17
2023-03-10T03:37:33.587Z,942.16
2023-03-10T03:38:33.597Z,942.06
2023-03-10T03:39:33.685Z,942.04
2023-03-10T03:40:33.494Z,942.10
2023-03-10T03:41:33.475Z,942.09
2023-03-10T03:42:33.446Z,942.04
2023-03-10T03:43:33.407Z,942.04
2023-03-10T03:44:33.385Z,941.98
2023-03-10T03:45:33.350Z,941.90
2023-03-10T03:46:33.344Z,941.87
2023-03-10T03:47:33.292Z,941.88
2023-03-10T03:48:33.265Z,941.90
2023-03-10T03:49:33.234Z,941.89
2023-03-10T03:50:33.208Z,941.80
2023-03-10T03:51:33.171Z,941.81
2023-03-10T03:52:33.152Z,941.77
2023-03-10T03:53:33.113Z,941.78
2023-03-10T03:54:33.107Z,941.76
2023-03-10T03:55:33.106Z,941.77
2023-03-10T03:56:33.038Z,941.73
2023-03-10T03:57:32.998Z,941.65
2023-03-10T03:58:32.971Z,941.69
2023-03-10T03:59:32.943Z,941.66
2023-03-10T04:00:32.906Z,941.62
2023-03-10T04:01:32.878Z,941.60
2023-03-10T04:02:32.951Z,941.50
2023-03-10T04:03:32.873Z,941.48
2023-03-10T04:04:32.793Z,941.46
2023-03-10T04:05:32.764Z,941.42
2023-03-10T04:06:34.339Z,941.36
2023-03-10T04:07:32.699Z,941.31
2023-03-10T04:08:32.670Z,941.34
2023-03-10T04:09:32.640Z,941.33
2023-03-10T04:10:32.643Z,941.35
2023-03-10T04:11:32.581Z,941.30
2023-03-10T04:12:32.552Z,941.31
2023-03-10T04:13:32.523Z,941.27
2023-03-10T04:14:32.496Z,941.25
2023-03-10T04:15:32.507Z,941.22
2023-03-10T04:16:32.443Z,941.28
2023-03-10T04:17:32.405Z,941.17
2023-03-10T04:18:32.374Z,941.19
2023-03-10T04:19:32.345Z,941.13
2023-03-10T04:20:32.319Z,941.09
2023-03-10T04:21:32.286Z,941.06
2023-03-10T04:22:32.266Z,941.03
2023-03-10T04:23:32.233Z,941.03
2023-03-10T04:24:32.198Z,941.00
2023-03-10T04:25:32.170Z,941.00
2023-03-10T04:26:32.156Z,940.99
2023-03-10T04:27:32.107Z,940.95
2023-03-10T04:28:32.079Z,940.95
2023-03-10T04:29:32.050Z,940.89
2023-03-10T04:30:32.020Z,940.86
2023-03-10T04:31:32.060Z,940.92
2023-03-10T04:32:32.021Z,940.91
2023-03-10T04:33:31.933Z,940.88
2023-03-10T04:34:31.904Z,940.85
2023-03-10T04:35:31.967Z,940.85
2023-03-10T04:36:31.845Z,940.81
2023-03-10T04:37:31.814Z,940.80
2023-03-10T04:38:31.816Z,940.70
2023-03-10T04:39:31.755Z,940.67
2023-03-10T04:40:31.727Z,940.67
2023-03-10T04:41:31.702Z,940.57
2023-03-10T04:42:31.688Z,940.51
2023-03-10T04:43:31.638Z,940.53
2023-03-10T04:44:31.791Z,940.49
2023-03-10T04:45:31.578Z,940.44
2023-03-10T04:46:31.587Z,940.45
2023-03-10T04:47:31.523Z,940.52
2023-03-10T04:48:31.490Z,940.51
2023-03-10T04:49:31.464Z,940.48
2023-03-10T04:50:31.434Z,940.50
2023-03-10T04:51:31.407Z,940.41
2023-03-10T04:52:31.376Z,940.44
2023-03-10T04:53:31.346Z,940.41
2023-03-10T04:54:31.315Z,940.45
2023-03-10T04:55:31.290Z,940.39
2023-03-10T04:56:31.256Z,940.38
2023-03-10T04:57:31.224Z,940.39
2023-03-10T04:58:31.218Z,940.32
2023-03-10T04:59:31.164Z,940.25
2023-03-10T05:00:31.200Z,940.27
2023-03-10T05:01:31.120Z,940.27
2023-03-10T05:02:31.081Z,940.15
2023-03-10T05:03:31.043Z,940.14
2023-03-10T05:04:31.080Z,940.13
2023-03-10T05:05:30.984Z,940.17
2023-03-10T05:06:30.954Z,940.20
2023-03-10T05:07:30.937Z,940.13
2023-03-10T05:08:30.896Z,940.17
2023-03-10T05:09:30.883Z,940.22
2023-03-10T05:10:30.836Z,940.16
2023-03-10T05:11:30.808Z,940.12
2023-03-10T05:12:30.775Z,940.08
2023-03-10T05:13:31.894Z,940.08
2023-03-10T05:14:30.849Z,940.09
2023-03-10T05:15:30.690Z,940.00
2023-03-10T05:16:30.742Z,939.99
2023-03-10T05:17:30.632Z,939.99
2023-03-10T05:18:30.604Z,940.00
2023-03-10T05:19:30.573Z,940.02
2023-03-10T05:20:30.540Z,940.01
2023-03-10T05:21:30.509Z,940.00
2023-03-10T05:22:30.481Z,940.00
2023-03-10T05:23:30.448Z,940.02
2023-03-10T05:24:30.423Z,939.92
2023-03-10T05:25:30.407Z,939.88
2023-03-10T05:26:32.071Z,939.89
2023-03-10T05:27:30.332Z,939.85
2023-03-10T05:28:30.307Z,939.81
2023-03-10T05:29:30.278Z,939.83
2023-03-10T05:30:30.263Z,939.82
2023-03-10T05:31:30.277Z,939.79
2023-03-10T05:32:30.259Z,939.80
2023-03-10T05:33:31.501Z,939.75
2023-03-10T05:34:30.129Z,939.74
2023-03-10T05:35:30.129Z,939.69
2023-03-10T05:36:30.069Z,939.61
2023-03-10T05:37:30.047Z,939.59
2023-03-10T05:38:30.010Z,939.62
2023-03-10T05:39:30.003Z,939.61
2023-03-10T05:40:29.953Z,939.63
2023-03-10T05:41:29.925Z,939.65
2023-03-10T05:42:29.894Z,939.63
2023-03-10T05:43:29.866Z,939.65
2023-03-10T05:44:29.837Z,939.67
2023-03-10T05:45:29.812Z,939.67
2023-03-10T05:46:29.901Z,939.67
2023-03-10T05:47:29.755Z,939.75
2023-03-10T05:48:29.724Z,939.72
2023-03-10T05:49:29.693Z,939.74
2023-03-10T05:50:29.680Z,939.77
2023-03-10T05:51:29.637Z,939.74
2023-03-10T05:52:29.628Z,939.76
2023-03-10T05:53:29.589Z,939.70
2023-03-10T05:54:29.545Z,939.73
2023-03-10T05:55:29.517Z,939.75
2023-03-10T05:56:29.489Z,939.74
2023-03-10T05:57:29.454Z,939.74
2023-03-10T05:58:29.431Z,939.65
2023-03-10T05:59:29.395Z,939.65
2023-03-10T06:00:29.367Z,939.61
2023-03-10T06:01:29.337Z,939.60
2023-03-10T06:02:29.376Z,939.56
2023-03-10T06:03:29.465Z,939.61
2023-03-10T06:04:29.333Z,939.60
2023-03-10T06:05:29.220Z,939.66
2023-03-10T06:06:29.210Z,939.70
2023-03-10T06:07:29.163Z,939.74
2023-03-10T06:08:29.133Z,939.86
2023-03-10T06:09:29.101Z,939.96
2023-03-10T06:10:29.074Z,940.08
2023-03-10T06:11:29.081Z,940.12
2023-03-10T06:12:29.026Z,940.21
2023-03-10T06:13:28.988Z,940.28
2023-03-10T06:14:28.961Z,940.36
2023-03-10T06:15:28.926Z,940.40
2023-03-10T06:16:29.036Z,940.39
2023-03-10T06:17:28.869Z,940.35
2023-03-10T06:18:28.981Z,940.27
2023-03-10T06:19:28.813Z,940.29
2023-03-10T06:20:28.789Z,940.26
2023-03-10T06:21:28.754Z,940.31
2023-03-10T06:22:31.178Z,940.26
2023-03-10T06:23:28.688Z,940.25
2023-03-10T06:24:28.659Z,940.26
2023-03-10T06:25:28.628Z,940.22
2023-03-10T06:26:28.600Z,940.21
2023-03-10T06:27:28.570Z,940.18
2023-03-10T06:28:28.540Z,940.14
2023-03-10T06:29:28.510Z,940.14
2023-03-10T06:30:28.486Z,940.07
2023-03-10T06:31:28.478Z,940.14
2023-03-10T06:32:28.538Z,940.21
2023-03-10T06:33:28.394Z,940.20
2023-03-10T06:34:28.386Z,940.22
2023-03-10T06:35:28.335Z,940.21
2023-03-10T06:36:28.305Z,940.14
2023-03-10T06:37:28.345Z,940.11
2023-03-10T06:38:28.247Z,940.04
2023-03-10T06:39:28.217Z,939.96
2023-03-10T06:40:28.195Z,940.02
2023-03-10T06:41:28.219Z,940.05
2023-03-10T06:42:28.145Z,940.04
2023-03-10T06:43:28.100Z,940.06
2023-03-10T06:44:28.078Z,940.19
2023-03-10T06:45:28.052Z,940.23
2023-03-10T06:46:28.060Z,940.23
2023-03-10T06:47:27.981Z,940.20
2023-03-10T06:48:27.950Z,940.27
2023-03-10T06:49:27.923Z,940.39
2023-03-10T06:50:29.852Z,940.38
2023-03-10T06:51:27.863Z,940.49
2023-03-10T06:52:27.828Z,940.60
2023-03-10T06:53:27.795Z,940.69
2023-03-10T06:54:27.769Z,940.74
2023-03-10T06:55:27.737Z,940.77
2023-03-10T06:56:27.715Z,940.90
2023-03-10T06:57:27.677Z,940.93
2023-03-10T06:58:27.649Z,941.00
2023-03-10T06:59:27.618Z,940.91
2023-03-10T07:00:27.588Z,940.98
2023-03-10T07:01:27.679Z,940.96
2023-03-10T07:02:27.556Z,941.04
2023-03-10T07:03:27.495Z,941.07
2023-03-10T07:04:27.527Z,941.11
2023-03-10T07:05:27.506Z,941.17
2023-03-10T07:06:27.495Z,941.19
2023-03-10T07:07:27.369Z,941.11
2023-03-10T07:08:27.340Z,941.17
2023-03-10T07:09:27.314Z,941.12
2023-03-10T07:10:27.276Z,941.09
2023-03-10T07:11:27.244Z,941.03
2023-03-10T07:12:27.216Z,941.00
2023-03-10T07:13:27.182Z,941.02
2023-03-10T07:14:27.168Z,940.95
2023-03-10T07:15:27.131Z,940.93
2023-03-10T07:16:27.176Z,940.94
2023-03-10T07:17:27.059Z,940.89
2023-03-10T07:18:27.029Z,940.90
2023-03-10T07:19:26.998Z,940.90
2023-03-10T07:20:26.979Z,940.85
2023-03-10T07:21:26.939Z,940.95
2023-03-10T07:22:26.926Z,940.91
2023-03-10T07:23:26.873Z,940.79
2023-03-10T07:24:26.861Z,940.93
2023-03-10T07:25:26.809Z,940.92
2023-03-10T07:26:26.786Z,940.95
2023-03-10T07:27:26.751Z,941.08
2023-03-10T07:28:26.718Z,941.04
2023-03-10T07:29:26.711Z,940.97
2023-03-10T07:30:26.657Z,941.01
2023-03-10T07:31:26.684Z,941.09
2023-03-10T07:32:26.718Z,941.15
2023-03-10T07:33:26.564Z,941.18
2023-03-10T07:34:26.534Z,941.21
2023-03-10T07:35:26.502Z,941.22
2023-03-10T07:36:26.535Z,941.25
2023-03-10T07:37:26.443Z,941.35
2023-03-10T07:38:26.439Z,941.36
2023-03-10T07:39:26.400Z,941.48
2023-03-10T07:40:26.351Z,941.48
2023-03-10T07:41:26.320Z,941.50
2023-03-10T07:42:26.294Z,941.56
2023-03-10T07:43:26.259Z,941.64
2023-03-10T07:44:26.252Z,941.63
2023-03-10T07:45:26.226Z,941.62
2023-03-10T07:46:26.251Z,941.64
2023-03-10T07:47:26.182Z,941.65
2023-03-10T07:48:26.108Z,941.77
2023-03-10T07:49:26.075Z,941.74
2023-03-10T07:50:26.046Z,941.74
2023-03-10T07:51:26.026Z,941.55
2023-03-10T07:52:25.988Z,941.65
2023-03-10T07:53:25.956Z,941.70
2023-03-10T07:54:25.997Z,941.87
2023-03-10T07:55:25.893Z,941.81
2023-03-10T07:56:25.864Z,941.79
2023-03-10T07:57:25.831Z,941.84
2023-03-10T07:58:25.804Z,942.06
2023-03-10T07:59:25.771Z,942.09
2023-03-10T08:00:25.745Z,942.04
2023-03-10T08:01:25.709Z,942.22
2023-03-10T08:02:25.680Z,942.30
2023-03-10T08:03:25.716Z,942.19
2023-03-10T08:04:25.800Z,942.12
2023-03-10T08:05:25.701Z,942.10
2023-03-10T08:06:25.557Z,942.07
2023-03-10T08:07:25.525Z,941.92
2023-03-10T08:08:25.500Z,941.98
2023-03-10T08:09:25.464Z,941.99
2023-03-10T08:10:25.461Z,942.06
2023-03-10T08:11:25.414Z,941.97
2023-03-10T08:12:25.376Z,942.00
2023-03-10T08:13:25.404Z,942.01
2023-03-10T08:14:25.308Z,942.00
2023-03-10T08:15:25.281Z,941.95
2023-03-10T08:16:25.429Z,941.96
2023-03-10T08:17:25.224Z,941.95
2023-03-10T08:18:25.189Z,942.00
2023-03-10T08:19:25.163Z,942.05
2023-03-10T08:20:25.127Z,942.07
2023-03-10T08:21:25.099Z,942.09
2023-03-10T08:22:25.074Z,942.17
2023-03-10T08:23:25.066Z,942.17
2023-03-10T08:24:25.024Z,942.17
2023-03-10T08:25:24.973Z,942.20
2023-03-10T08:26:24.973Z,942.14
2023-03-10T08:27:24.916Z,942.15
2023-03-10T08:28:24.884Z,942.19
2023-03-10T08:29:24.852Z,942.16
2023-03-10T08:30:24.856Z,942.22
2023-03-10T08:31:24.821Z,942.19
2023-03-10T08:32:24.781Z,942.15
2023-03-10T08:33:24.732Z,942.17
2023-03-10T08:34:24.704Z,942.21
2023-03-10T08:35:24.676Z,942.15
2023-03-10T08:36:24.704Z,942.14
2023-03-10T08:37:24.611Z,942.14
2023-03-10T08:38:24.583Z,942.16
2023-03-10T08:39:26.640Z,942.18
2023-03-10T08:40:24.520Z,942.23
2023-03-10T08:41:24.494Z,942.23
2023-03-10T08:42:24.544Z,942.20
2023-03-10T08:43:24.431Z,942.21
2023-03-10T08:44:24.401Z,942.27
2023-03-10T08:45:24.373Z,942.25
2023-03-10T08:46:24.414Z,942.26
2023-03-10T08:47:25.579Z,942.27
2023-03-10T08:48:24.283Z,942.28
2023-03-10T08:49:24.257Z,942.34
2023-03-10T08:50:24.224Z,942.37
2023-03-10T08:51:24.196Z,942.39
2023-03-10T08:52:24.167Z,942.40
2023-03-10T08:53:24.134Z,942.30
2023-03-10T08:54:24.107Z,942.30
2023-03-10T08:55:24.076Z,942.28
2023-03-10T08:56:24.054Z,942.23
2023-03-10T08:57:24.019Z,942.23
2023-03-10T08:58:24.034Z,942.19
2023-03-10T08:59:23.957Z,942.24
2023-03-10T09:00:23.925Z,942.27
2023-03-10T09:01:23.897Z,942.32
2023-03-10T09:02:23.979Z,942.22
2023-03-10T09:03:23.938Z,942.20
2023-03-10T09:04:23.814Z,942.22
2023-03-10T09:05:23.778Z,942.26
2023-03-10T09:06:23.748Z,942.21
2023-03-10T09:07:23.720Z,942.18
2023-03-10T09:08:25.142Z,942.13
2023-03-10T09:09:23.660Z,942.15
2023-03-10T09:10:23.630Z,942.15
2023-03-10T09:11:23.603Z,942.17
2023-03-10T09:12:23.571Z,942.15
2023-03-10T09:13:23.543Z,942.12
2023-03-10T09:14:23.537Z,942.16
2023-03-10T09:15:23.489Z,942.11
2023-03-10T09:16:23.503Z,942.11
2023-03-10T09:17:23.426Z,942.04
2023-03-10T09:18:23.396Z,942.09
2023-03-10T09:19:23.370Z,942.07
2023-03-10T09:20:23.335Z,942.03
2023-03-10T09:21:23.307Z,942.00
2023-03-10T09:22:23.288Z,941.95
2023-03-10T09:23:23.259Z,941.89
2023-03-10T09:24:23.218Z,941.87
2023-03-10T09:25:23.192Z,941.92
2023-03-10T09:26:23.161Z,941.87
2023-03-10T09:27:23.132Z,941.86
2023-03-10T09:28:23.100Z,941.83
2023-03-10T09:29:40.289Z,941.85
2023-03-10T09:30:23.080Z,941.80
2023-03-10T09:31:23.238Z,941.79
2023-03-10T09:32:23.157Z,941.74
2023-03-10T09:33:22.955Z,941.69
2023-03-10T09:34:22.930Z,941.71
2023-03-10T09:35:22.919Z,941.71
2023-03-10T09:36:22.917Z,941.75
2023-03-10T09:37:22.844Z,941.75
2023-03-10T09:38:22.816Z,941.76
2023-03-10T09:39:22.783Z,941.74
2023-03-10T09:40:22.765Z,941.70
2023-03-10T09:41:22.729Z,941.73
2023-03-10T09:42:36.462Z,941.72
2023-03-10T09:43:24.372Z,941.71
2023-03-10T09:44:22.637Z,941.72
2023-03-10T09:45:22.611Z,941.79
2023-03-10T09:46:22.693Z,941.85
2023-03-10T09:47:22.565Z,941.84
2023-03-10T09:48:25.340Z,941.80
2023-03-10T09:49:22.493Z,941.79
2023-03-10T09:50:22.483Z,941.82
2023-03-10T09:51:22.444Z,941.85
2023-03-10T09:52:22.409Z,941.83
2023-03-10T09:53:22.383Z,941.85
2023-03-10T09:54:22.351Z,941.92
2023-03-10T09:55:22.326Z,941.84
2023-03-10T09:56:22.300Z,941.89
2023-03-10T09:57:22.283Z,941.87
2023-03-10T09:58:22.245Z,941.84
2023-03-10T09:59:22.224Z,941.81
2023-03-10T10:00:22.175Z,941.84
2023-03-10T10:01:22.168Z,941.73
2023-03-10T10:02:22.160Z,941.80
2023-03-10T10:03:22.156Z,941.82
2023-03-10T10:04:22.203Z,941.88
2023-03-10T10:05:22.031Z,941.88
2023-03-10T10:06:22.005Z,941.93
2023-03-10T10:07:21.971Z,941.86
2023-03-10T10:08:21.950Z,941.92
2023-03-10T10:09:21.922Z,941.98
2023-03-10T10:10:21.882Z,942.00
2023-03-10T10:11:21.856Z,941.96
2023-03-10T10:12:21.824Z,941.93
2023-03-10T10:13:21.795Z,941.96
2023-03-10T10:14:29.593Z,941.90
2023-03-10T10:15:21.738Z,941.98
2023-03-10T10:16:33.421Z,941.93
2023-03-10T10:17:21.751Z,941.96
2023-03-10T10:18:24.919Z,941.88
2023-03-10T10:19:21.619Z,941.91
2023-03-10T10:20:21.592Z,942.00
2023-03-10T10:21:24.024Z,941.97
2023-03-10T10:22:21.530Z,941.91
2023-03-10T10:23:21.513Z,941.92
2023-03-10T10:24:21.470Z,942.04
2023-03-10T10:25:21.445Z,941.93
2023-03-10T10:26:21.413Z,942.00
2023-03-10T10:27:23.252Z,942.02
2023-03-10T10:28:21.354Z,942.03
2023-03-10T10:29:21.329Z,941.95
2023-03-10T10:30:21.305Z,942.05
2023-03-10T10:31:21.487Z,942.12
2023-03-10T10:32:21.318Z,941.97
2023-03-10T10:33:21.212Z,942.21
2023-03-10T10:34:21.207Z,942.11
2023-03-10T10:35:21.152Z,942.01
2023-03-10T10:36:21.121Z,942.05
2023-03-10T10:37:21.101Z,942.12
2023-03-10T10:38:21.068Z,942.10
2023-03-10T10:39:21.045Z,942.20
2023-03-10T10:40:21.019Z,942.22
2023-03-10T10:41:20.983Z,942.15
2023-03-10T10:42:20.963Z,942.16
2023-03-10T10:43:20.925Z,942.17
2023-03-10T10:44:20.903Z,942.21
2023-03-10T10:45:20.865Z,942.16
2023-03-10T10:46:20.863Z,942.32
2023-03-10T10:47:20.811Z,942.21
2023-03-10T10:48:20.782Z,942.05
2023-03-10T10:49:20.752Z,942.17
2023-03-10T10:50:20.751Z,942.18
2023-03-10T10:51:20.700Z,942.15
2023-03-10T10:52:20.670Z,942.22
2023-03-10T10:53:20.635Z,942.23
2023-03-10T10:54:20.607Z,942.14
2023-03-10T10:55:20.579Z,942.11
2023-03-10T10:56:20.565Z,942.20
2023-03-10T10:57:20.564Z,942.23
2023-03-10T10:58:20.492Z,942.24
2023-03-10T10:59:20.474Z,942.17
2023-03-10T11:00:20.541Z,942.21
2023-03-10T11:01:20.509Z,942.21
2023-03-10T11:02:20.424Z,942.18
2023-03-10T11:03:20.388Z,942.27
2023-03-10T11:04:20.323Z,942.33
2023-03-10T11:05:20.309Z,942.31
2023-03-10T11:06:20.288Z,942.30
2023-03-10T11:07:20.240Z,942.38
2023-03-10T11:08:20.209Z,942.33
2023-03-10T11:09:20.193Z,942.39
2023-03-10T11:10:20.311Z,942.44
2023-03-10T11:11:20.134Z,942.46
2023-03-10T11:12:20.326Z,942.51
2023-03-10T11:13:20.072Z,942.55
2023-03-10T11:14:20.042Z,942.54
2023-03-10T11:15:20.038Z,942.39
2023-03-10T11:16:19.984Z,942.51
2023-03-10T11:17:19.957Z,942.43
2023-03-10T11:18:19.928Z,942.49
2023-03-10T11:19:19.903Z,942.51
2023-03-10T11:20:19.905Z,942.46
2023-03-10T11:21:19.855Z,942.51
2023-03-10T11:22:19.985Z,942.58
2023-03-10T11:23:19.787Z,942.56
2023-03-10T11:24:19.757Z,942.55
2023-03-10T11:25:19.729Z,942.51
2023-03-10T11:26:19.700Z,942.48
2023-03-10T11:27:19.676Z,942.56
2023-03-10T11:28:19.647Z,942.56
2023-03-10T11:29:19.729Z,942.58
2023-03-10T11:30:19.676Z,942.60
2023-03-10T11:31:19.629Z,942.63
2023-03-10T11:32:19.561Z,942.67
2023-03-10T11:33:19.504Z,942.62
2023-03-10T11:34:19.479Z,942.57
2023-03-10T11:35:19.462Z,942.65
2023-03-10T11:36:19.454Z,942.68
2023-03-10T11:37:19.392Z,942.67
2023-03-10T11:38:19.391Z,942.68
2023-03-10T11:39:19.335Z,942.78
2023-03-10T11:40:19.368Z,942.67
2023-03-10T11:41:19.298Z,942.72
2023-03-10T11:42:19.250Z,942.79
2023-03-10T11:43:19.227Z,942.75
2023-03-10T11:44:19.203Z,942.77
2023-03-10T11:45:19.166Z,942.70
2023-03-10T11:46:19.205Z,942.76
2023-03-10T11:47:19.115Z,942.81
2023-03-10T11:48:19.086Z,942.71
2023-03-10T11:49:19.052Z,942.68
2023-03-10T11:50:19.147Z,942.71
2023-03-10T11:51:19.000Z,942.61
2023-03-10T11:52:18.966Z,942.54
2023-03-10T11:53:18.939Z,942.69
2023-03-10T11:54:18.927Z,942.74
2023-03-10T11:55:18.886Z,942.77
2023-03-10T11:56:18.853Z,942.73
2023-03-10T11:57:18.834Z,942.76
2023-03-10T11:58:18.798Z,942.71
2023-03-10T11:59:18.774Z,942.63
2023-03-10T12:00:18.738Z,942.72
2023-03-10T12:01:18.709Z,942.73
2023-03-10T12:02:18.691Z,942.67
2023-03-10T12:03:18.716Z,942.71
2023-03-10T12:04:18.622Z,942.81
2023-03-10T12:05:18.654Z,942.87
2023-03-10T12:06:18.565Z,942.85
2023-03-10T12:07:18.537Z,942.90
2023-03-10T12:08:18.505Z,942.81
2023-03-10T12:09:18.477Z,942.78
2023-03-10T12:10:18.473Z,942.83
2023-03-10T12:11:18.421Z,942.77
2023-03-10T12:12:18.391Z,942.88
2023-03-10T12:13:18.360Z,943.00
2023-03-10T12:14:18.333Z,942.89
2023-03-10T12:15:18.302Z,942.78
2023-03-10T12:16:18.373Z,942.92
2023-03-10T12:17:18.244Z,942.90
2023-03-10T12:18:18.217Z,942.92
2023-03-10T12:19:18.185Z,942.89
2023-03-10T12:20:18.169Z,942.84
2023-03-10T12:21:18.126Z,942.82
2023-03-10T12:22:18.095Z,942.68
2023-03-10T12:23:18.065Z,942.77
2023-03-10T12:24:18.036Z,942.92
2023-03-10T12:25:18.010Z,942.79
2023-03-10T12:26:18.027Z,942.79
2023-03-10T12:27:17.947Z,942.85
2023-03-10T12:28:17.943Z,942.87